createdAt,value
2023-05-06T00:03:40.805Z,100358.68
2023-05-06T00:08:48.047Z,100356.80
2023-05-06T00:13:54.901Z,100352.13
2023-05-06T00:19:01.879Z,100344.88
2023-05-06T00:24:09.516Z,100346.05
2023-05-06T00:29:16.403Z,100338.29
2023-05-06T00:34:23.268Z,100331.20
2023-05-06T00:39:30.631Z,100332.94
2023-05-06T00:44:37.567Z,100333.02
2023-05-06T00:49:44.773Z,100330.22
2023-05-06T00:54:52.597Z,100329.42
2023-05-06T00:59:59.627Z,100326.08
2023-05-06T01:05:08.282Z,100314.80
2023-05-06T01:10:22.614Z,100324.70
2023-05-06T01:15:34.553Z,100321.69
2023-05-06T01:20:43.743Z,100327.23
2023-05-06T01:25:50.777Z,100327.48
2023-05-06T01:31:03.792Z,100328.80
2023-05-06T01:36:20.040Z,100328.56
2023-05-06T01:41:28.411Z,100322.66
2023-05-06T01:46:35.672Z,100324.35
2023-05-06T01:51:47.911Z,100316.25
2023-05-06T01:56:55.315Z,100301.80
2023-05-06T02:02:02.307Z,100307.27
2023-05-06T02:07:09.782Z,100302.77
2023-05-06T02:12:17.073Z,100296.59
2023-05-06T02:17:24.289Z,100295.75
2023-05-06T02:22:31.794Z,100288.04
2023-05-06T02:27:38.753Z,100283.58
2023-05-06T02:32:45.898Z,100285.44
2023-05-06T02:37:52.805Z,100283.00
2023-05-06T02:42:59.891Z,100286.23
2023-05-06T02:48:07.642Z,100289.12
2023-05-06T02:53:16.956Z,100285.85
2023-05-06T02:58:23.935Z,100283.81
2023-05-06T03:03:30.905Z,100287.59
2023-05-06T03:08:38.077Z,100286.44
2023-05-06T03:13:46.501Z,100292.30
2023-05-06T03:18:54.296Z,100302.98
2023-05-06T03:24:01.617Z,100327.80
2023-05-06T03:29:09.743Z,100335.73
2023-05-06T03:34:16.867Z,100333.17
2023-05-06T03:39:24.993Z,100347.98
2023-05-06T03:44:32.703Z,100359.73
2023-05-06T03:49:40.195Z,100369.20
2023-05-06T03:54:47.996Z,100365.13
2023-05-06T03:59:54.892Z,100361.73
2023-05-06T04:05:02.219Z,100353.58
2023-05-06T04:10:11.402Z,100345.84
2023-05-06T04:15:20.266Z,100342.55
2023-05-06T04:20:27.466Z,100337.70
2023-05-06T04:25:36.008Z,100328.39
2023-05-06T04:30:43.446Z,100327.05
2023-05-06T04:35:54.866Z,100319.98
2023-05-06T04:41:03.989Z,100309.46
2023-05-06T04:46:11.637Z,100283.20
2023-05-06T04:51:19.374Z,100264.28
2023-05-06T04:56:26.489Z,100248.88
2023-05-06T05:01:34.286Z,100233.91
2023-05-06T05:06:41.633Z,100222.01
2023-05-06T05:11:48.836Z,100214.91
2023-05-06T05:16:56.084Z,100216.40
2023-05-06T05:22:03.780Z,100238.41
2023-05-06T05:27:15.338Z,100244.90
2023-05-06T05:32:25.169Z,100262.95
2023-05-06T05:37:32.719Z,100287.19
2023-05-06T05:42:40.817Z,100284.44
2023-05-06T05:47:54.154Z,100294.02
2023-05-06T05:53:02.375Z,100288.52
2023-05-06T05:58:12.508Z,100281.10
2023-05-06T06:03:21.702Z,100296.37
2023-05-06T06:08:29.938Z,100300.77
2023-05-06T06:13:38.040Z,100295.63
2023-05-06T06:18:48.116Z,100294.33
2023-05-06T06:23:55.077Z,100292.87
2023-05-06T06:29:02.180Z,100305.60
2023-05-06T06:34:10.044Z,100298.94
2023-05-06T06:39:17.121Z,100290.77
2023-05-06T06:44:24.130Z,100293.46
2023-05-06T06:49:32.557Z,100298.52
2023-05-06T06:54:41.415Z,100296.67
2023-05-06T06:59:50.433Z,100298.84
2023-05-06T07:04:57.703Z,100304.09
2023-05-06T07:10:04.898Z,100298.48
2023-05-06T07:15:13.046Z,100303.88
2023-05-06T07:20:20.450Z,100298.84
2023-05-06T07:25:31.472Z,100298.17
2023-05-06T07:30:40.583Z,100295.14
2023-05-06T07:35:47.713Z,100289.52
2023-05-06T07:40:54.990Z,100281.32
2023-05-06T07:46:05.224Z,100268.91
2023-05-06T07:51:12.400Z,100249.54
2023-05-06T07:56:20.159Z,100234.47
2023-05-06T08:01:27.168Z,100226.08
2023-05-06T08:06:33.970Z,100233.06
2023-05-06T08:11:40.945Z,100227.48
2023-05-06T08:16:48.017Z,100225.35
2023-05-06T08:21:55.426Z,100223.20
2023-05-06T08:27:02.416Z,100205.59
2023-05-06T08:32:09.622Z,100197.39
2023-05-06T08:37:16.638Z,100212.92
2023-05-06T08:42:26.431Z,100258.76
2023-05-06T08:47:33.511Z,100315.73
2023-05-06T08:52:40.887Z,100320.42
2023-05-06T08:57:49.211Z,100314.46
2023-05-06T09:02:56.504Z,100299.88
2023-05-06T09:08:04.328Z,100286.84
2023-05-06T09:13:14.054Z,100278.06
2023-05-06T09:18:21.308Z,100262.68
2023-05-06T09:23:28.618Z,100251.94
2023-05-06T09:28:36.732Z,100251.71
2023-05-06T09:33:43.796Z,100250.50
2023-05-06T09:38:50.994Z,100257.98
2023-05-06T09:43:59.334Z,100265.52
2023-05-06T09:49:06.993Z,100270.67
2023-05-06T09:54:15.091Z,100274.86
2023-05-06T09:59:24.587Z,100279.77
2023-05-06T10:04:34.938Z,100282.52
2023-05-06T10:09:42.678Z,100272.76
2023-05-06T10:14:50.615Z,100265.60
2023-05-06T10:20:01.452Z,100259.16
2023-05-06T10:25:19.413Z,100253.92
2023-05-06T10:30:27.975Z,100256.77
2023-05-06T10:35:49.304Z,100256.10
2023-05-06T10:40:55.779Z,100251.23
2023-05-06T10:46:10.851Z,100253.27
2023-05-06T10:51:28.966Z,100254.73
2023-05-06T10:56:37.632Z,100259.52
2023-05-06T11:01:46.458Z,100259.52
2023-05-06T11:06:54.369Z,100261.02
2023-05-06T11:12:05.869Z,100262.52
2023-05-06T11:22:50.738Z,100265.61
2023-05-06T11:27:58.488Z,100271.46
2023-05-06T11:33:09.132Z,100268.48
2023-05-06T11:38:16.251Z,100267.77
2023-05-06T11:43:23.444Z,100265.77
2023-05-06T11:48:30.713Z,100269.52
2023-05-06T11:53:38.470Z,100275.95
2023-05-06T11:58:47.536Z,100283.10
2023-05-06T12:03:57.632Z,100285.63
2023-05-06T12:09:06.515Z,100292.77
2023-05-06T12:14:14.046Z,100293.54
2023-05-06T12:19:22.218Z,100298.50
2023-05-06T12:24:32.230Z,100299.15
2023-05-06T12:29:39.223Z,100299.34
2023-05-06T12:34:46.277Z,100303.20
2023-05-06T12:39:53.280Z,100308.84
2023-05-06T12:45:13.920Z,100307.27
2023-05-06T12:50:33.750Z,100307.19
2023-05-06T12:55:42.424Z,100307.08
2023-05-06T13:00:49.448Z,100306.89
2023-05-06T13:05:56.388Z,100304.14
2023-05-06T13:11:04.318Z,100300.48
2023-05-06T13:16:12.090Z,100298.62
2023-05-06T13:21:18.916Z,100304.41
2023-05-06T13:26:25.995Z,100305.55
2023-05-06T13:31:34.934Z,100309.23
2023-05-06T13:36:43.352Z,100303.16
2023-05-06T13:41:50.673Z,100301.58
2023-05-06T13:46:57.872Z,100297.27
2023-05-06T13:52:07.212Z,100293.55
2023-05-06T13:57:15.053Z,100295.28
2023-05-06T14:02:22.368Z,100297.63
2023-05-06T14:07:29.525Z,100300.01
2023-05-06T14:12:36.743Z,100297.33
2023-05-06T14:17:44.094Z,100296.40
2023-05-06T14:22:51.118Z,100301.83
2023-05-06T14:27:58.408Z,100306.02
2023-05-06T14:33:05.560Z,100307.85
2023-05-06T14:38:13.291Z,100310.84
2023-05-06T14:43:21.490Z,100310.63
2023-05-06T14:48:28.577Z,100312.29
2023-05-06T14:53:35.798Z,100317.84
2023-05-06T14:58:42.999Z,100318.23
2023-05-06T15:03:51.256Z,100327.33
2023-05-06T15:08:58.331Z,100335.64
2023-05-06T15:14:05.322Z,100334.68
2023-05-06T15:19:12.964Z,100336.08
2023-05-06T15:24:19.924Z,100341.71
2023-05-06T15:29:26.950Z,100344.46
2023-05-06T15:34:33.935Z,100345.99
2023-05-06T15:39:40.927Z,100345.39
2023-05-06T15:44:51.524Z,100346.48
2023-05-06T15:49:59.686Z,100353.59
2023-05-06T15:55:08.308Z,100358.82
2023-05-06T16:00:19.423Z,100357.98
2023-05-06T16:05:26.545Z,100367.59
2023-05-06T16:10:35.572Z,100367.35
2023-05-06T16:15:43.482Z,100366.96
2023-05-06T16:20:51.082Z,100365.08
2023-05-06T16:25:58.144Z,100364.25
2023-05-06T16:31:06.204Z,100371.67
2023-05-06T16:36:13.432Z,100367.52
2023-05-06T16:41:20.922Z,100362.48
2023-05-06T16:46:28.952Z,100367.28
2023-05-06T16:51:36.203Z,100369.02
2023-05-06T16:56:51.304Z,100376.89
2023-05-06T17:01:59.795Z,100378.38
2023-05-06T17:07:07.569Z,100385.92
2023-05-06T17:12:14.585Z,100393.63
2023-05-06T17:17:25.319Z,100400.98
2023-05-06T17:22:32.628Z,100402.00
2023-05-06T17:27:39.813Z,100398.39
2023-05-06T17:32:46.816Z,100394.41
2023-05-06T17:37:55.009Z,100399.59
2023-05-06T17:43:02.102Z,100407.86
2023-05-06T17:48:09.439Z,100415.55
2023-05-06T17:53:16.540Z,100417.70
2023-05-06T17:58:24.007Z,100420.35
2023-05-06T18:03:31.305Z,100423.45
2023-05-06T18:08:38.328Z,100427.66
2023-05-06T18:13:45.424Z,100437.33
2023-05-06T18:18:52.501Z,100449.61
2023-05-06T18:24:10.265Z,100448.48
2023-05-06T18:29:23.044Z,100450.45
2023-05-06T18:34:30.385Z,100452.42
2023-05-06T18:39:42.826Z,100464.98
2023-05-06T18:44:50.464Z,100470.21
2023-05-06T18:50:00.594Z,100473.20
2023-05-06T18:55:08.955Z,100479.80
2023-05-06T19:00:16.839Z,100485.67
2023-05-06T19:05:43.964Z,100491.08
2023-05-06T19:10:51.060Z,100494.89
2023-05-06T19:16:01.444Z,100501.11
2023-05-06T19:21:12.502Z,100505.30
2023-05-06T19:26:19.844Z,100502.62
2023-05-06T19:31:27.015Z,100509.37
2023-05-06T19:36:37.099Z,100519.75
2023-05-06T19:41:44.229Z,100520.31
2023-05-06T19:46:56.182Z,100521.05
2023-05-06T19:52:03.448Z,100524.83
2023-05-06T19:57:10.792Z,100536.14
2023-05-06T20:02:17.919Z,100537.21
2023-05-06T20:07:24.985Z,100542.56
2023-05-06T20:12:32.057Z,100544.30
2023-05-06T20:17:38.989Z,100543.83
2023-05-06T20:22:46.076Z,100545.11
2023-05-06T20:27:53.104Z,100545.17
2023-05-06T20:33:00.310Z,100546.27
2023-05-06T20:38:11.154Z,100548.42
2023-05-06T20:43:18.279Z,100546.63
2023-05-06T20:48:27.101Z,100557.78
2023-05-06T20:53:34.863Z,100554.41
2023-05-06T20:58:42.237Z,100561.50
2023-05-06T21:03:49.105Z,100563.05
2023-05-06T21:08:56.455Z,100567.56
2023-05-06T21:14:03.656Z,100570.17
2023-05-06T21:19:11.113Z,100570.58
2023-05-06T21:24:18.213Z,100569.24
2023-05-06T21:29:25.473Z,100563.28
2023-05-06T21:34:32.533Z,100569.51
2023-05-06T21:39:39.606Z,100569.89
2023-05-06T21:44:46.674Z,100569.23
2023-05-06T21:49:54.155Z,100573.20
2023-05-06T21:55:01.617Z,100579.88
2023-05-06T22:00:12.431Z,100581.25
2023-05-06T22:05:20.371Z,100581.23
2023-05-06T22:10:27.615Z,100589.96
2023-05-06T22:15:34.617Z,100588.10
2023-05-06T22:20:41.622Z,100585.02
2023-05-06T22:25:49.500Z,100586.37
2023-05-06T22:30:56.635Z,100591.52
2023-05-06T22:36:03.777Z,100596.47
2023-05-06T22:41:12.963Z,100591.00
2023-05-06T22:46:20.313Z,100594.08
2023-05-06T22:51:27.750Z,100598.01
2023-05-06T22:56:34.818Z,100601.59
2023-05-06T23:01:41.777Z,100607.41
2023-05-06T23:06:48.947Z,100604.65
2023-05-06T23:11:56.138Z,100607.59
2023-05-06T23:17:03.044Z,100604.66
2023-05-06T23:22:10.044Z,100612.52
2023-05-06T23:27:16.906Z,100609.27
2023-05-06T23:32:23.776Z,100612.20
2023-05-06T23:37:30.736Z,100617.16
2023-05-06T23:42:37.778Z,100617.33
2023-05-06T23:47:44.830Z,100615.42
2023-05-06T23:52:51.901Z,100618.66
2023-05-06T23:57:58.783Z,100620.89
